sensor_id;sensor_type;location;lat;lon;timestamp;P1;durP1;ratioP1;P2;durP2;ratioP2
35126;SDS011;21300;52.006;5.798;2024-01-10T00:01:41;7.35;;;2.50;;
35126;SDS011;21300;52.006;5.798;2024-01-10T00:04:07;4.47;;;2.40;;
35126;SDS011;21300;52.006;5.798;2024-01-10T00:06:33;3.80;;;2.13;;
35126;SDS011;21300;52.006;5.798;2024-01-10T00:09:02;6.32;;;2.97;;
35126;SDS011;21300;52.006;5.798;2024-01-10T00:11:27;4.93;;;1.90;;
35126;SDS011;21300;52.006;5.798;2024-01-10T00:13:53;6.28;;;2.40;;
35126;SDS011;21300;52.006;5.798;2024-01-10T00:16:24;3.95;;;2.53;;
35126;SDS011;21300;52.006;5.798;2024-01-10T00:18:50;3.75;;;1.98;;
35126;SDS011;21300;52.006;5.798;2024-01-10T00:21:16;6.00;;;2.65;;
35126;SDS011;21300;52.006;5.798;2024-01-10T00:23:42;4.80;;;2.10;;
35126;SDS011;21300;52.006;5.798;2024-01-10T00:26:07;4.72;;;2.08;;
35126;SDS011;21300;52.006;5.798;2024-01-10T00:28:33;9.00;;;2.38;;
35126;SDS011;21300;52.006;5.798;2024-01-10T00:30:59;5.53;;;2.05;;
35126;SDS011;21300;52.006;5.798;2024-01-10T00:33:24;7.50;;;1.92;;
35126;SDS011;21300;52.006;5.798;2024-01-10T00:35:50;4.78;;;2.30;;
35126;SDS011;21300;52.006;5.798;2024-01-10T00:38:16;5.07;;;2.05;;
35126;SDS011;21300;52.006;5.798;2024-01-10T00:40:41;8.00;;;1.90;;
35126;SDS011;21300;52.006;5.798;2024-01-10T00:43:07;4.95;;;2.35;;
35126;SDS011;21300;52.006;5.798;2024-01-10T00:45:33;6.07;;;2.20;;
35126;SDS011;21300;52.006;5.798;2024-01-10T00:47:58;2.58;;;1.98;;
35126;SDS011;21300;52.006;5.798;2024-01-10T00:50:24;10.15;;;2.63;;
35126;SDS011;21300;52.006;5.798;2024-01-10T00:52:50;5.53;;;2.22;;
35126;SDS011;21300;52.006;5.798;2024-01-10T00:55:15;5.25;;;2.30;;
35126;SDS011;21300;52.006;5.798;2024-01-10T00:57:41;3.72;;;2.08;;
35126;SDS011;21300;52.006;5.798;2024-01-10T01:00:07;5.57;;;2.33;;
35126;SDS011;21300;52.006;5.798;2024-01-10T01:02:35;5.45;;;2.10;;
35126;SDS011;21300;52.006;5.798;2024-01-10T01:05:04;6.22;;;2.25;;
35126;SDS011;21300;52.006;5.798;2024-01-10T01:07:30;4.38;;;2.10;;
35126;SDS011;21300;52.006;5.798;2024-01-10T01:09:56;6.38;;;2.80;;
35126;SDS011;21300;52.006;5.798;2024-01-10T01:12:21;5.75;;;2.42;;
35126;SDS011;21300;52.006;5.798;2024-01-10T01:14:47;4.00;;;2.17;;
35126;SDS011;21300;52.006;5.798;2024-01-10T01:17:13;5.80;;;2.78;;
35126;SDS011;21300;52.006;5.798;2024-01-10T01:19:38;4.10;;;2.17;;
35126;SDS011;21300;52.006;5.798;2024-01-10T01:22:04;4.80;;;2.20;;
35126;SDS011;21300;52.006;5.798;2024-01-10T01:24:30;5.18;;;2.30;;
35126;SDS011;21300;52.006;5.798;2024-01-10T01:26:55;6.05;;;2.28;;
35126;SDS011;21300;52.006;5.798;2024-01-10T01:29:21;6.95;;;1.92;;
35126;SDS011;21300;52.006;5.798;2024-01-10T01:31:47;3.92;;;2.05;;
35126;SDS011;21300;52.006;5.798;2024-01-10T01:34:12;7.10;;;2.25;;
35126;SDS011;21300;52.006;5.798;2024-01-10T01:36:38;4.63;;;2.40;;
35126;SDS011;21300;52.006;5.798;2024-01-10T01:39:04;3.00;;;1.83;;
35126;SDS011;21300;52.006;5.798;2024-01-10T01:41:30;5.07;;;2.88;;
35126;SDS011;21300;52.006;5.798;2024-01-10T01:43:56;4.65;;;2.35;;
35126;SDS011;21300;52.006;5.798;2024-01-10T01:46:22;4.38;;;2.10;;
35126;SDS011;21300;52.006;5.798;2024-01-10T01:48:51;7.53;;;2.30;;
35126;SDS011;21300;52.006;5.798;2024-01-10T01:51:17;3.42;;;2.03;;
35126;SDS011;21300;52.006;5.798;2024-01-10T01:53:51;4.78;;;2.28;;
35126;SDS011;21300;52.006;5.798;2024-01-10T01:56:18;4.50;;;2.50;;
35126;SDS011;21300;52.006;5.798;2024-01-10T01:58:44;7.50;;;2.10;;
35126;SDS011;21300;52.006;5.798;2024-01-10T02:01:11;6.03;;;2.53;;
35126;SDS011;21300;52.006;5.798;2024-01-10T02:03:37;5.00;;;2.47;;
35126;SDS011;21300;52.006;5.798;2024-01-10T02:06:03;5.78;;;2.88;;
35126;SDS011;21300;52.006;5.798;2024-01-10T02:08:33;3.80;;;2.40;;
35126;SDS011;21300;52.006;5.798;2024-01-10T02:11:00;6.60;;;2.38;;
35126;SDS011;21300;52.006;5.798;2024-01-10T02:13:27;5.82;;;2.15;;
35126;SDS011;21300;52.006;5.798;2024-01-10T02:15:53;5.05;;;2.15;;
35126;SDS011;21300;52.006;5.798;2024-01-10T02:18:19;4.80;;;2.30;;
35126;SDS011;21300;52.006;5.798;2024-01-10T02:20:45;5.30;;;2.63;;
35126;SDS011;21300;52.006;5.798;2024-01-10T02:23:11;7.22;;;3.00;;
35126;SDS011;21300;52.006;5.798;2024-01-10T02:25:38;5.20;;;1.92;;
35126;SDS011;21300;52.006;5.798;2024-01-10T02:28:04;2.90;;;1.85;;
35126;SDS011;21300;52.006;5.798;2024-01-10T02:30:30;6.68;;;2.20;;
35126;SDS011;21300;52.006;5.798;2024-01-10T02:32:55;8.02;;;2.50;;
35126;SDS011;21300;52.006;5.798;2024-01-10T02:35:21;3.67;;;1.88;;
35126;SDS011;21300;52.006;5.798;2024-01-10T02:37:47;5.93;;;2.17;;
35126;SDS011;21300;52.006;5.798;2024-01-10T02:40:16;6.15;;;2.83;;
35126;SDS011;21300;52.006;5.798;2024-01-10T02:42:41;8.50;;;2.58;;
35126;SDS011;21300;52.006;5.798;2024-01-10T02:45:07;6.68;;;2.15;;
35126;SDS011;21300;52.006;5.798;2024-01-10T02:47:33;4.68;;;2.42;;
35126;SDS011;21300;52.006;5.798;2024-01-10T02:49:59;6.55;;;2.63;;
35126;SDS011;21300;52.006;5.798;2024-01-10T02:52:25;4.35;;;2.28;;
35126;SDS011;21300;52.006;5.798;2024-01-10T02:54:51;5.72;;;2.47;;
35126;SDS011;21300;52.006;5.798;2024-01-10T02:57:16;4.40;;;1.90;;
35126;SDS011;21300;52.006;5.798;2024-01-10T02:59:42;5.63;;;2.47;;
35126;SDS011;21300;52.006;5.798;2024-01-10T03:02:07;5.82;;;2.38;;
35126;SDS011;21300;52.006;5.798;2024-01-10T03:04:33;5.00;;;2.50;;
35126;SDS011;21300;52.006;5.798;2024-01-10T03:06:59;3.17;;;2.00;;
35126;SDS011;21300;52.006;5.798;2024-01-10T03:09:24;5.55;;;2.42;;
35126;SDS011;21300;52.006;5.798;2024-01-10T03:11:50;4.00;;;2.28;;
35126;SDS011;21300;52.006;5.798;2024-01-10T03:14:16;4.78;;;2.38;;
35126;SDS011;21300;52.006;5.798;2024-01-10T03:16:41;4.05;;;2.00;;
35126;SDS011;21300;52.006;5.798;2024-01-10T03:19:07;3.35;;;2.55;;
35126;SDS011;21300;52.006;5.798;2024-01-10T03:21:33;5.43;;;1.90;;
35126;SDS011;21300;52.006;5.798;2024-01-10T03:23:59;6.55;;;2.13;;
35126;SDS011;21300;52.006;5.798;2024-01-10T03:26:26;4.60;;;2.40;;
35126;SDS011;21300;52.006;5.798;2024-01-10T03:28:53;5.00;;;2.47;;
35126;SDS011;21300;52.006;5.798;2024-01-10T03:31:20;5.57;;;2.15;;
35126;SDS011;21300;52.006;5.798;2024-01-10T03:33:45;9.00;;;2.90;;
35126;SDS011;21300;52.006;5.798;2024-01-10T03:36:13;4.85;;;2.42;;
35126;SDS011;21300;52.006;5.798;2024-01-10T03:38:40;8.48;;;2.25;;
35126;SDS011;21300;52.006;5.798;2024-01-10T03:41:06;4.50;;;2.72;;
35126;SDS011;21300;52.006;5.798;2024-01-10T03:43:31;5.72;;;2.45;;
35126;SDS011;21300;52.006;5.798;2024-01-10T03:45:57;5.07;;;2.63;;
35126;SDS011;21300;52.006;5.798;2024-01-10T03:48:23;7.28;;;3.00;;
35126;SDS011;21300;52.006;5.798;2024-01-10T03:50:49;3.55;;;2.30;;
35126;SDS011;21300;52.006;5.798;2024-01-10T03:53:15;5.63;;;2.88;;
35126;SDS011;21300;52.006;5.798;2024-01-10T03:55:40;4.78;;;2.35;;
35126;SDS011;21300;52.006;5.798;2024-01-10T03:58:06;6.30;;;2.88;;
35126;SDS011;21300;52.006;5.798;2024-01-10T04:00:32;6.97;;;2.25;;
35126;SDS011;21300;52.006;5.798;2024-01-10T04:02:57;8.70;;;3.30;;
35126;SDS011;21300;52.006;5.798;2024-01-10T04:05:23;4.75;;;1.90;;
35126;SDS011;21300;52.006;5.798;2024-01-10T04:07:50;4.95;;;2.80;;
35126;SDS011;21300;52.006;5.798;2024-01-10T04:10:17;7.13;;;2.20;;
35126;SDS011;21300;52.006;5.798;2024-01-10T04:12:46;6.57;;;2.55;;
35126;SDS011;21300;52.006;5.798;2024-01-10T04:15:11;4.55;;;2.65;;
35126;SDS011;21300;52.006;5.798;2024-01-10T04:17:37;5.30;;;2.40;;
35126;SDS011;21300;52.006;5.798;2024-01-10T04:20:03;4.85;;;2.53;;
35126;SDS011;21300;52.006;5.798;2024-01-10T04:22:34;6.38;;;2.53;;
35126;SDS011;21300;52.006;5.798;2024-01-10T04:25:00;4.53;;;2.35;;
35126;SDS011;21300;52.006;5.798;2024-01-10T04:27:27;6.03;;;2.78;;
35126;SDS011;21300;52.006;5.798;2024-01-10T04:29:53;5.90;;;2.47;;
35126;SDS011;21300;52.006;5.798;2024-01-10T04:32:19;7.10;;;2.42;;
35126;SDS011;21300;52.006;5.798;2024-01-10T04:34:45;5.25;;;2.63;;
35126;SDS011;21300;52.006;5.798;2024-01-10T04:37:10;9.48;;;2.80;;
35126;SDS011;21300;52.006;5.798;2024-01-10T04:39:36;5.20;;;2.72;;
35126;SDS011;21300;52.006;5.798;2024-01-10T04:42:03;6.75;;;3.33;;
35126;SDS011;21300;52.006;5.798;2024-01-10T04:44:29;5.50;;;2.60;;
35126;SDS011;21300;52.006;5.798;2024-01-10T04:46:54;7.10;;;3.17;;
35126;SDS011;21300;52.006;5.798;2024-01-10T04:49:20;4.18;;;2.50;;
35126;SDS011;21300;52.006;5.798;2024-01-10T04:51:45;5.00;;;2.72;;
35126;SDS011;21300;52.006;5.798;2024-01-10T04:54:11;4.55;;;2.25;;
35126;SDS011;21300;52.006;5.798;2024-01-10T04:56:37;3.63;;;2.42;;
35126;SDS011;21300;52.006;5.798;2024-01-10T04:59:03;5.55;;;2.40;;
35126;SDS011;21300;52.006;5.798;2024-01-10T05:01:31;4.85;;;2.67;;
35126;SDS011;21300;52.006;5.798;2024-01-10T05:03:57;7.45;;;2.70;;
35126;SDS011;21300;52.006;5.798;2024-01-10T05:06:23;4.57;;;2.35;;
35126;SDS011;21300;52.006;5.798;2024-01-10T05:08:49;7.55;;;3.47;;
35126;SDS011;21300;52.006;5.798;2024-01-10T05:11:15;9.40;;;3.38;;
35126;SDS011;21300;52.006;5.798;2024-01-10T05:13:41;4.28;;;2.67;;
35126;SDS011;21300;52.006;5.798;2024-01-10T05:16:09;6.63;;;2.85;;
35126;SDS011;21300;52.006;5.798;2024-01-10T05:18:35;5.65;;;2.60;;
35126;SDS011;21300;52.006;5.798;2024-01-10T05:21:01;5.75;;;2.38;;
35126;SDS011;21300;52.006;5.798;2024-01-10T05:23:29;5.07;;;2.97;;
35126;SDS011;21300;52.006;5.798;2024-01-10T05:25:54;4.28;;;3.03;;
35126;SDS011;21300;52.006;5.798;2024-01-10T05:28:20;5.22;;;3.05;;
35126;SDS011;21300;52.006;5.798;2024-01-10T05:30:46;6.38;;;2.58;;
35126;SDS011;21300;52.006;5.798;2024-01-10T05:33:11;7.25;;;2.72;;
35126;SDS011;21300;52.006;5.798;2024-01-10T05:35:38;4.90;;;2.63;;
35126;SDS011;21300;52.006;5.798;2024-01-10T05:38:04;5.05;;;2.60;;
35126;SDS011;21300;52.006;5.798;2024-01-10T05:40:30;7.68;;;3.53;;
35126;SDS011;21300;52.006;5.798;2024-01-10T05:42:56;5.35;;;2.28;;
35126;SDS011;21300;52.006;5.798;2024-01-10T05:45:24;7.70;;;3.22;;
35126;SDS011;21300;52.006;5.798;2024-01-10T05:47:50;6.82;;;3.15;;
35126;SDS011;21300;52.006;5.798;2024-01-10T05:50:16;6.63;;;3.30;;
35126;SDS011;21300;52.006;5.798;2024-01-10T05:52:42;9.25;;;3.55;;
35126;SDS011;21300;52.006;5.798;2024-01-10T05:55:08;5.22;;;2.38;;
35126;SDS011;21300;52.006;5.798;2024-01-10T05:57:35;10.13;;;2.80;;
35126;SDS011;21300;52.006;5.798;2024-01-10T06:00:04;4.60;;;2.45;;
35126;SDS011;21300;52.006;5.798;2024-01-10T06:02:37;5.30;;;2.35;;
35126;SDS011;21300;52.006;5.798;2024-01-10T06:05:07;7.95;;;3.28;;
35126;SDS011;21300;52.006;5.798;2024-01-10T06:07:37;10.80;;;2.92;;
35126;SDS011;21300;52.006;5.798;2024-01-10T06:10:03;11.75;;;3.22;;
35126;SDS011;21300;52.006;5.798;2024-01-10T06:12:30;10.77;;;2.67;;
35126;SDS011;21300;52.006;5.798;2024-01-10T06:14:56;6.47;;;2.47;;
35126;SDS011;21300;52.006;5.798;2024-01-10T06:17:22;10.63;;;3.08;;
35126;SDS011;21300;52.006;5.798;2024-01-10T06:19:48;6.95;;;3.13;;
35126;SDS011;21300;52.006;5.798;2024-01-10T06:22:14;3.78;;;2.65;;
35126;SDS011;21300;52.006;5.798;2024-01-10T06:24:41;8.52;;;3.85;;
35126;SDS011;21300;52.006;5.798;2024-01-10T06:27:07;8.45;;;3.20;;
35126;SDS011;21300;52.006;5.798;2024-01-10T06:29:34;5.88;;;2.70;;
35126;SDS011;21300;52.006;5.798;2024-01-10T06:32:00;5.80;;;3.15;;
35126;SDS011;21300;52.006;5.798;2024-01-10T06:34:26;9.32;;;3.33;;
35126;SDS011;21300;52.006;5.798;2024-01-10T06:36:53;9.13;;;3.05;;
35126;SDS011;21300;52.006;5.798;2024-01-10T06:39:18;6.43;;;3.40;;
35126;SDS011;21300;52.006;5.798;2024-01-10T06:41:47;9.23;;;3.42;;
35126;SDS011;21300;52.006;5.798;2024-01-10T06:44:14;6.55;;;3.50;;
35126;SDS011;21300;52.006;5.798;2024-01-10T06:46:42;10.25;;;4.00;;
35126;SDS011;21300;52.006;5.798;2024-01-10T06:49:09;13.75;;;3.70;;
35126;SDS011;21300;52.006;5.798;2024-01-10T06:51:35;8.48;;;4.07;;
35126;SDS011;21300;52.006;5.798;2024-01-10T06:54:01;6.43;;;3.55;;
35126;SDS011;21300;52.006;5.798;2024-01-10T06:56:30;6.95;;;3.67;;
35126;SDS011;21300;52.006;5.798;2024-01-10T06:58:57;12.35;;;3.47;;
35126;SDS011;21300;52.006;5.798;2024-01-10T07:01:23;5.32;;;2.58;;
35126;SDS011;21300;52.006;5.798;2024-01-10T07:03:49;10.52;;;3.95;;
35126;SDS011;21300;52.006;5.798;2024-01-10T07:06:16;7.68;;;3.58;;
35126;SDS011;21300;52.006;5.798;2024-01-10T07:08:42;9.52;;;4.43;;
35126;SDS011;21300;52.006;5.798;2024-01-10T07:11:09;7.60;;;3.60;;
35126;SDS011;21300;52.006;5.798;2024-01-10T07:13:36;8.35;;;3.33;;
35126;SDS011;21300;52.006;5.798;2024-01-10T07:16:02;10.13;;;3.67;;
35126;SDS011;21300;52.006;5.798;2024-01-10T07:18:28;11.15;;;4.47;;
35126;SDS011;21300;52.006;5.798;2024-01-10T07:20:54;9.35;;;3.70;;
35126;SDS011;21300;52.006;5.798;2024-01-10T07:23:20;8.70;;;3.67;;
35126;SDS011;21300;52.006;5.798;2024-01-10T07:25:47;10.65;;;4.47;;
35126;SDS011;21300;52.006;5.798;2024-01-10T07:28:16;8.02;;;3.38;;
35126;SDS011;21300;52.006;5.798;2024-01-10T07:30:42;7.53;;;4.22;;
35126;SDS011;21300;52.006;5.798;2024-01-10T07:33:09;8.65;;;4.32;;
35126;SDS011;21300;52.006;5.798;2024-01-10T07:35:35;8.50;;;4.05;;
35126;SDS011;21300;52.006;5.798;2024-01-10T07:38:03;10.45;;;4.22;;
35126;SDS011;21300;52.006;5.798;2024-01-10T07:40:29;10.93;;;3.65;;
35126;SDS011;21300;52.006;5.798;2024-01-10T07:42:55;7.25;;;3.83;;
35126;SDS011;21300;52.006;5.798;2024-01-10T07:45:21;9.07;;;4.28;;
35126;SDS011;21300;52.006;5.798;2024-01-10T07:47:47;8.27;;;4.10;;
35126;SDS011;21300;52.006;5.798;2024-01-10T07:50:13;12.27;;;3.72;;
35126;SDS011;21300;52.006;5.798;2024-01-10T07:52:39;8.90;;;3.92;;
35126;SDS011;21300;52.006;5.798;2024-01-10T07:55:05;8.48;;;4.10;;
35126;SDS011;21300;52.006;5.798;2024-01-10T07:57:32;9.07;;;3.55;;
35126;SDS011;21300;52.006;5.798;2024-01-10T08:00:01;14.88;;;4.63;;
35126;SDS011;21300;52.006;5.798;2024-01-10T08:02:29;6.70;;;3.53;;
35126;SDS011;21300;52.006;5.798;2024-01-10T08:04:58;9.60;;;4.45;;
35126;SDS011;21300;52.006;5.798;2024-01-10T08:07:33;9.07;;;4.05;;
35126;SDS011;21300;52.006;5.798;2024-01-10T08:09:59;10.55;;;5.05;;
35126;SDS011;21300;52.006;5.798;2024-01-10T08:12:25;9.13;;;3.97;;
35126;SDS011;21300;52.006;5.798;2024-01-10T08:14:51;10.52;;;4.35;;
35126;SDS011;21300;52.006;5.798;2024-01-10T08:17:16;9.18;;;4.22;;
35126;SDS011;21300;52.006;5.798;2024-01-10T08:19:42;9.95;;;4.32;;
35126;SDS011;21300;52.006;5.798;2024-01-10T08:22:08;8.80;;;3.95;;
35126;SDS011;21300;52.006;5.798;2024-01-10T08:24:33;15.25;;;4.88;;
35126;SDS011;21300;52.006;5.798;2024-01-10T08:26:59;11.10;;;5.38;;
35126;SDS011;21300;52.006;5.798;2024-01-10T08:29:24;9.00;;;3.85;;
35126;SDS011;21300;52.006;5.798;2024-01-10T08:31:55;13.73;;;4.32;;
35126;SDS011;21300;52.006;5.798;2024-01-10T08:34:21;11.75;;;5.13;;
35126;SDS011;21300;52.006;5.798;2024-01-10T08:36:47;9.85;;;4.20;;
35126;SDS011;21300;52.006;5.798;2024-01-10T08:39:15;10.90;;;5.18;;
35126;SDS011;21300;52.006;5.798;2024-01-10T08:41:41;15.02;;;5.93;;
35126;SDS011;21300;52.006;5.798;2024-01-10T08:44:09;17.60;;;5.68;;
35126;SDS011;21300;52.006;5.798;2024-01-10T08:46:35;14.93;;;5.30;;
35126;SDS011;21300;52.006;5.798;2024-01-10T08:49:01;10.45;;;4.53;;
35126;SDS011;21300;52.006;5.798;2024-01-10T08:51:26;10.68;;;5.07;;
35126;SDS011;21300;52.006;5.798;2024-01-10T08:53:52;12.05;;;4.63;;
35126;SDS011;21300;52.006;5.798;2024-01-10T08:56:18;15.93;;;5.60;;
35126;SDS011;21300;52.006;5.798;2024-01-10T08:58:45;9.70;;;4.30;;
35126;SDS011;21300;52.006;5.798;2024-01-10T09:01:11;11.60;;;4.90;;
35126;SDS011;21300;52.006;5.798;2024-01-10T09:03:38;17.50;;;5.25;;
35126;SDS011;21300;52.006;5.798;2024-01-10T09:06:04;14.40;;;6.20;;
35126;SDS011;21300;52.006;5.798;2024-01-10T09:08:32;11.05;;;5.15;;
35126;SDS011;21300;52.006;5.798;2024-01-10T09:10:58;12.85;;;5.57;;
35126;SDS011;21300;52.006;5.798;2024-01-10T09:13:24;9.70;;;4.65;;
35126;SDS011;21300;52.006;5.798;2024-01-10T09:15:50;11.70;;;4.72;;
35126;SDS011;21300;52.006;5.798;2024-01-10T09:18:16;15.60;;;4.63;;
35126;SDS011;21300;52.006;5.798;2024-01-10T09:20:41;21.45;;;5.80;;
35126;SDS011;21300;52.006;5.798;2024-01-10T09:23:07;9.60;;;4.63;;
35126;SDS011;21300;52.006;5.798;2024-01-10T09:25:32;12.93;;;4.93;;
35126;SDS011;21300;52.006;5.798;2024-01-10T09:27:58;14.90;;;5.53;;
35126;SDS011;21300;52.006;5.798;2024-01-10T09:30:24;13.40;;;5.25;;
35126;SDS011;21300;52.006;5.798;2024-01-10T09:32:49;13.90;;;6.57;;
35126;SDS011;21300;52.006;5.798;2024-01-10T09:35:15;15.05;;;6.28;;
35126;SDS011;21300;52.006;5.798;2024-01-10T09:37:41;14.45;;;5.40;;
35126;SDS011;21300;52.006;5.798;2024-01-10T09:40:06;12.38;;;5.55;;
35126;SDS011;21300;52.006;5.798;2024-01-10T09:42:33;15.35;;;6.15;;
35126;SDS011;21300;52.006;5.798;2024-01-10T09:45:00;13.50;;;5.55;;
35126;SDS011;21300;52.006;5.798;2024-01-10T09:47:28;17.08;;;6.25;;
35126;SDS011;21300;52.006;5.798;2024-01-10T09:49:56;12.52;;;5.68;;
35126;SDS011;21300;52.006;5.798;2024-01-10T09:52:26;11.13;;;5.05;;
35126;SDS011;21300;52.006;5.798;2024-01-10T09:54:54;12.25;;;5.90;;
35126;SDS011;21300;52.006;5.798;2024-01-10T09:57:22;15.00;;;5.55;;
35126;SDS011;21300;52.006;5.798;2024-01-10T09:59:51;11.15;;;5.35;;
35126;SDS011;21300;52.006;5.798;2024-01-10T10:02:17;14.40;;;6.13;;
35126;SDS011;21300;52.006;5.798;2024-01-10T10:07:27;13.82;;;5.30;;
35126;SDS011;21300;52.006;5.798;2024-01-10T10:09:53;12.90;;;5.20;;
35126;SDS011;21300;52.006;5.798;2024-01-10T10:12:21;9.70;;;5.15;;
35126;SDS011;21300;52.006;5.798;2024-01-10T10:14:47;13.35;;;5.65;;
35126;SDS011;21300;52.006;5.798;2024-01-10T10:17:17;13.65;;;6.00;;
35126;SDS011;21300;52.006;5.798;2024-01-10T10:19:43;13.35;;;5.55;;
35126;SDS011;21300;52.006;5.798;2024-01-10T10:22:11;12.13;;;5.03;;
35126;SDS011;21300;52.006;5.798;2024-01-10T10:24:37;13.68;;;5.53;;
35126;SDS011;21300;52.006;5.798;2024-01-10T10:27:07;16.92;;;5.53;;
35126;SDS011;21300;52.006;5.798;2024-01-10T10:29:36;10.48;;;5.03;;
35126;SDS011;21300;52.006;5.798;2024-01-10T10:32:02;14.45;;;5.68;;
35126;SDS011;21300;52.006;5.798;2024-01-10T10:34:30;12.75;;;5.80;;
35126;SDS011;21300;52.006;5.798;2024-01-10T10:37:00;13.73;;;5.68;;
35126;SDS011;21300;52.006;5.798;2024-01-10T10:39:26;12.88;;;5.07;;
35126;SDS011;21300;52.006;5.798;2024-01-10T10:41:52;14.15;;;5.95;;
35126;SDS011;21300;52.006;5.798;2024-01-10T10:44:19;11.55;;;5.47;;
35126;SDS011;21300;52.006;5.798;2024-01-10T10:46:55;13.23;;;5.85;;
35126;SDS011;21300;52.006;5.798;2024-01-10T10:49:28;13.50;;;5.28;;
35126;SDS011;21300;52.006;5.798;2024-01-10T10:51:57;15.52;;;5.65;;
35126;SDS011;21300;52.006;5.798;2024-01-10T10:54:25;10.88;;;4.78;;
35126;SDS011;21300;52.006;5.798;2024-01-10T10:56:54;13.90;;;5.78;;
35126;SDS011;21300;52.006;5.798;2024-01-10T10:59:23;12.25;;;5.13;;
35126;SDS011;21300;52.006;5.798;2024-01-10T11:01:50;14.57;;;5.35;;
35126;SDS011;21300;52.006;5.798;2024-01-10T11:04:19;14.00;;;5.70;;
35126;SDS011;21300;52.006;5.798;2024-01-10T11:06:46;13.57;;;5.50;;
35126;SDS011;21300;52.006;5.798;2024-01-10T11:09:11;13.93;;;5.35;;
35126;SDS011;21300;52.006;5.798;2024-01-10T11:22:43;14.38;;;5.30;;
35126;SDS011;21300;52.006;5.798;2024-01-10T11:25:18;12.38;;;5.40;;
35126;SDS011;21300;52.006;5.798;2024-01-10T11:27:44;9.98;;;5.13;;
35126;SDS011;21300;52.006;5.798;2024-01-10T11:30:12;12.50;;;5.05;;
35126;SDS011;21300;52.006;5.798;2024-01-10T11:32:38;14.63;;;5.75;;
35126;SDS011;21300;52.006;5.798;2024-01-10T11:35:22;11.38;;;4.90;;
35126;SDS011;21300;52.006;5.798;2024-01-10T11:37:49;12.57;;;6.30;;
35126;SDS011;21300;52.006;5.798;2024-01-10T11:40:16;13.63;;;5.60;;
35126;SDS011;21300;52.006;5.798;2024-01-10T11:43:08;10.27;;;5.70;;
35126;SDS011;21300;52.006;5.798;2024-01-10T11:45:38;11.35;;;4.78;;
35126;SDS011;21300;52.006;5.798;2024-01-10T11:48:15;12.82;;;6.40;;
35126;SDS011;21300;52.006;5.798;2024-01-10T11:50:40;10.63;;;5.28;;
35126;SDS011;21300;52.006;5.798;2024-01-10T11:53:07;9.65;;;5.03;;
35126;SDS011;21300;52.006;5.798;2024-01-10T11:55:49;13.63;;;5.57;;
35126;SDS011;21300;52.006;5.798;2024-01-10T11:58:17;8.57;;;3.75;;
35126;SDS011;21300;52.006;5.798;2024-01-10T12:00:42;12.50;;;5.07;;
35126;SDS011;21300;52.006;5.798;2024-01-10T12:03:09;10.75;;;5.25;;
35126;SDS011;21300;52.006;5.798;2024-01-10T12:05:37;15.02;;;5.70;;
35126;SDS011;21300;52.006;5.798;2024-01-10T12:08:06;16.23;;;5.88;;
35126;SDS011;21300;52.006;5.798;2024-01-10T12:10:33;14.65;;;6.03;;
35126;SDS011;21300;52.006;5.798;2024-01-10T12:13:01;11.68;;;5.53;;
35126;SDS011;21300;52.006;5.798;2024-01-10T12:15:28;13.07;;;6.28;;
35126;SDS011;21300;52.006;5.798;2024-01-10T12:17:54;10.48;;;5.40;;
35126;SDS011;21300;52.006;5.798;2024-01-10T12:20:20;14.95;;;6.18;;
35126;SDS011;21300;52.006;5.798;2024-01-10T12:22:46;13.65;;;5.93;;
35126;SDS011;21300;52.006;5.798;2024-01-10T12:25:12;11.98;;;6.00;;
35126;SDS011;21300;52.006;5.798;2024-01-10T12:27:38;11.85;;;5.75;;
35126;SDS011;21300;52.006;5.798;2024-01-10T12:30:04;12.77;;;5.97;;
35126;SDS011;21300;52.006;5.798;2024-01-10T12:32:30;14.10;;;5.43;;
35126;SDS011;21300;52.006;5.798;2024-01-10T12:35:03;12.60;;;5.55;;
35126;SDS011;21300;52.006;5.798;2024-01-10T12:37:30;14.48;;;5.95;;
35126;SDS011;21300;52.006;5.798;2024-01-10T12:39:56;12.32;;;5.75;;
35126;SDS011;21300;52.006;5.798;2024-01-10T12:42:22;13.95;;;5.60;;
35126;SDS011;21300;52.006;5.798;2024-01-10T12:44:50;11.40;;;5.40;;
35126;SDS011;21300;52.006;5.798;2024-01-10T12:47:19;12.40;;;5.65;;
35126;SDS011;21300;52.006;5.798;2024-01-10T12:49:46;9.85;;;5.10;;
35126;SDS011;21300;52.006;5.798;2024-01-10T12:52:12;10.52;;;4.88;;
35126;SDS011;21300;52.006;5.798;2024-01-10T12:54:41;14.25;;;5.70;;
35126;SDS011;21300;52.006;5.798;2024-01-10T12:57:07;14.20;;;5.80;;
35126;SDS011;21300;52.006;5.798;2024-01-10T12:59:33;12.13;;;6.07;;
35126;SDS011;21300;52.006;5.798;2024-01-10T13:01:59;9.98;;;5.20;;
35126;SDS011;21300;52.006;5.798;2024-01-10T13:04:25;12.27;;;5.18;;
35126;SDS011;21300;52.006;5.798;2024-01-10T13:06:53;17.30;;;5.68;;
35126;SDS011;21300;52.006;5.798;2024-01-10T13:09:19;15.75;;;5.38;;
35126;SDS011;21300;52.006;5.798;2024-01-10T13:11:45;13.40;;;6.03;;
35126;SDS011;21300;52.006;5.798;2024-01-10T13:14:12;13.07;;;5.43;;
35126;SDS011;21300;52.006;5.798;2024-01-10T13:16:37;11.70;;;5.28;;
35126;SDS011;21300;52.006;5.798;2024-01-10T13:19:03;14.43;;;6.40;;
35126;SDS011;21300;52.006;5.798;2024-01-10T13:21:29;13.70;;;6.57;;
35126;SDS011;21300;52.006;5.798;2024-01-10T13:23:54;14.73;;;6.20;;
35126;SDS011;21300;52.006;5.798;2024-01-10T13:26:20;11.23;;;5.07;;
35126;SDS011;21300;52.006;5.798;2024-01-10T13:28:46;12.60;;;4.82;;
35126;SDS011;21300;52.006;5.798;2024-01-10T13:31:11;12.82;;;5.75;;
35126;SDS011;21300;52.006;5.798;2024-01-10T13:33:37;11.50;;;5.47;;
35126;SDS011;21300;52.006;5.798;2024-01-10T13:36:03;14.10;;;5.82;;
35126;SDS011;21300;52.006;5.798;2024-01-10T13:38:29;14.32;;;4.82;;
35126;SDS011;21300;52.006;5.798;2024-01-10T13:40:55;13.00;;;5.35;;
35126;SDS011;21300;52.006;5.798;2024-01-10T13:43:21;13.05;;;5.90;;
35126;SDS011;21300;52.006;5.798;2024-01-10T13:45:47;11.52;;;6.25;;
35126;SDS011;21300;52.006;5.798;2024-01-10T13:48:13;13.55;;;6.15;;
35126;SDS011;21300;52.006;5.798;2024-01-10T13:50:38;10.15;;;4.88;;
35126;SDS011;21300;52.006;5.798;2024-01-10T13:53:04;14.27;;;5.80;;
35126;SDS011;21300;52.006;5.798;2024-01-10T13:55:30;12.55;;;5.45;;
35126;SDS011;21300;52.006;5.798;2024-01-10T13:57:56;10.48;;;5.15;;
35126;SDS011;21300;52.006;5.798;2024-01-10T14:00:22;12.50;;;6.18;;
35126;SDS011;21300;52.006;5.798;2024-01-10T14:02:48;13.07;;;6.07;;
35126;SDS011;21300;52.006;5.798;2024-01-10T14:05:14;9.85;;;5.07;;
35126;SDS011;21300;52.006;5.798;2024-01-10T14:07:40;12.95;;;6.22;;
35126;SDS011;21300;52.006;5.798;2024-01-10T14:10:09;11.57;;;5.70;;
35126;SDS011;21300;52.006;5.798;2024-01-10T14:12:36;10.80;;;5.13;;
35126;SDS011;21300;52.006;5.798;2024-01-10T14:15:02;12.77;;;5.20;;
35126;SDS011;21300;52.006;5.798;2024-01-10T14:17:28;12.10;;;5.18;;
35126;SDS011;21300;52.006;5.798;2024-01-10T14:19:54;13.77;;;5.82;;
35126;SDS011;21300;52.006;5.798;2024-01-10T14:22:20;13.07;;;6.28;;
35126;SDS011;21300;52.006;5.798;2024-01-10T14:24:48;13.43;;;5.55;;
35126;SDS011;21300;52.006;5.798;2024-01-10T14:27:15;14.07;;;6.15;;
35126;SDS011;21300;52.006;5.798;2024-01-10T14:29:41;13.98;;;5.60;;
35126;SDS011;21300;52.006;5.798;2024-01-10T14:32:07;13.75;;;5.32;;
35126;SDS011;21300;52.006;5.798;2024-01-10T14:34:33;14.73;;;5.50;;
35126;SDS011;21300;52.006;5.798;2024-01-10T14:36:59;18.75;;;6.15;;
35126;SDS011;21300;52.006;5.798;2024-01-10T14:39:24;11.13;;;5.35;;
35126;SDS011;21300;52.006;5.798;2024-01-10T14:41:50;11.02;;;5.05;;
35126;SDS011;21300;52.006;5.798;2024-01-10T14:44:16;13.25;;;6.50;;
35126;SDS011;21300;52.006;5.798;2024-01-10T14:46:41;11.20;;;4.80;;
35126;SDS011;21300;52.006;5.798;2024-01-10T14:49:07;15.00;;;6.15;;
35126;SDS011;21300;52.006;5.798;2024-01-10T14:51:33;18.13;;;5.80;;